Time;durP1;ratioP1;P1;durP2;ratioP2;P2;SDS_P1;SDS_P2;PMS_P1;PMS_P2;Temp;Humidity;BMP_temperature;BMP_pressure;BME280_temperature;BME280_humidity;BME280_pressure;Samples;Min_cycle;Max_cycle;Signal;HPM_P1;HPM_P2
2022/05/13 00:00:57;;;;;;;4.82;3.85;;;16.60;99.90;;;;;;5053846;28;20102;-57
2022/05/13 00:03:22;;;;;;;7.82;4.03;;;16.70;99.90;;;;;;5053903;28;20567;-55
2022/05/13 00:05:50;;;;;;;3.65;3.35;;;16.70;99.90;;;;;;5053682;28;20111;-56
2022/05/13 00:08:16;;;;;;;6.00;3.38;;;16.70;99.90;;;;;;5053819;28;20391;-53
2022/05/13 00:10:42;;;;;;;4.47;3.95;;;16.80;99.90;;;;;;5052421;28;20044;-52
2022/05/13 00:13:09;;;;;;;5.43;3.15;;;16.90;99.90;;;;;;5053625;28;20388;-51
2022/05/13 00:15:35;;;;;;;6.05;3.80;;;16.80;99.90;;;;;;5052385;28;20021;-50
2022/05/13 00:18:01;;;;;;;9.30;3.33;;;16.80;99.90;;;;;;5053626;28;20017;-54
2022/05/13 00:20:27;;;;;;;11.73;4.00;;;16.80;99.90;;;;;;5053433;28;20116;-56
2022/05/13 00:22:55;;;;;;;13.32;4.25;;;16.70;99.90;;;;;;5052089;28;20017;-52
2022/05/13 00:25:25;;;;;;;8.75;3.40;;;16.70;99.90;;;;;;5053526;28;20033;-56
2022/05/13 00:27:54;;;;;;;5.25;3.97;;;16.70;99.90;;;;;;5053195;28;20610;-54
2022/05/13 00:30:20;;;;;;;6.75;3.53;;;16.70;99.90;;;;;;5053457;28;20017;-51
2022/05/13 00:32:47;;;;;;;7.43;3.70;;;16.70;99.90;;;;;;5053412;28;20036;-54
2022/05/13 00:35:13;;;;;;;4.32;3.83;;;16.70;99.90;;;;;;5053292;28;20457;-52
2022/05/13 00:37:38;;;;;;;6.07;3.90;;;16.70;99.90;;;;;;5053312;28;20027;-52
2022/05/13 00:40:05;;;;;;;7.68;4.38;;;16.80;99.90;;;;;;5053158;28;20035;-54
2022/05/13 00:42:31;;;;;;;8.48;4.68;;;16.70;99.90;;;;;;5052980;28;20472;-51
2022/05/13 00:44:59;;;;;;;4.43;4.03;;;16.80;99.90;;;;;;5053065;28;20107;-49
2022/05/13 00:47:25;;;;;;;7.95;4.00;;;16.70;99.90;;;;;;5052525;28;20460;-55
2022/05/13 00:49:53;;;;;;;5.13;4.35;;;16.70;99.90;;;;;;5052383;28;20021;-50
2022/05/13 00:52:19;;;;;;;4.93;4.43;;;16.60;99.90;;;;;;5052765;28;20071;-52
2022/05/13 00:54:45;;;;;;;5.70;4.13;;;16.60;99.90;;;;;;5052792;28;20017;-54
2022/05/13 00:57:12;;;;;;;9.57;4.93;;;16.50;99.90;;;;;;5052962;28;20029;-51
2022/05/13 00:59:41;;;;;;;7.20;4.85;;;16.50;99.90;;;;;;5052811;28;20104;-52
2022/05/13 01:02:11;;;;;;;11.02;5.15;;;16.40;99.90;;;;;;5051595;28;20128;-55
2022/05/13 01:04:38;;;;;;;5.57;4.40;;;16.40;99.90;;;;;;5052702;28;20025;-55
2022/05/13 01:07:12;;;;;;;5.43;4.40;;;16.40;99.90;;;;;;5052738;28;20580;-53
2022/05/13 01:09:43;;;;;;;10.75;5.28;;;16.50;99.90;;;;;;5052653;28;20020;-56
2022/05/13 01:12:15;;;;;;;5.90;4.60;;;16.50;99.90;;;;;;5052612;28;20506;-52
2022/05/13 01:14:47;;;;;;;5.82;4.50;;;16.60;99.90;;;;;;5052587;28;20032;-54
2022/05/13 01:20:18;;;;;;;6.25;4.85;;;16.50;99.90;;;;;;5052500;28;20068;-51
2022/05/13 01:22:53;;;;;;;5.28;4.78;;;16.50;99.90;;;;;;5052382;28;20029;-56
2022/05/13 01:25:24;;;;;;;6.35;5.75;;;16.40;99.90;;;;;;5051071;28;20025;-55
2022/05/13 01:27:51;;;;;;;9.60;6.55;;;16.40;99.90;;;;;;5052148;28;20029;-51
2022/05/13 01:30:20;;;;;;;8.30;5.10;;;16.40;99.90;;;;;;5052208;28;20019;-52
2022/05/13 01:32:46;;;;;;;7.65;4.95;;;16.40;99.90;;;;;;5052213;28;20048;-52
2022/05/13 01:35:13;;;;;;;5.25;4.75;;;16.40;99.90;;;;;;5052174;28;20025;-54
2022/05/13 01:37:39;;;;;;;5.53;4.80;;;16.50;99.90;;;;;;5052085;28;20033;-52
2022/05/13 01:40:06;;;;;;;7.60;4.80;;;16.40;99.90;;;;;;5052108;28;20025;-54
2022/05/13 01:42:33;;;;;;;7.03;6.20;;;16.30;99.90;;;;;;5051915;28;20033;-50
2022/05/13 01:44:59;;;;;;;7.72;5.85;;;16.30;99.90;;;;;;5051933;28;20049;-54
2022/05/13 01:47:25;;;;;;;6.00;4.88;;;16.20;99.90;;;;;;5051912;28;20048;-51
2022/05/13 01:49:52;;;;;;;5.32;4.82;;;16.20;99.90;;;;;;5051930;28;20025;-52
2022/05/13 01:52:18;;;;;;;6.22;5.63;;;16.10;99.90;;;;;;5051891;28;20083;-55
2022/05/13 01:54:44;;;;;;;7.35;5.63;;;16.00;99.90;;;;;;5051857;28;20115;-54
2022/05/13 01:57:09;;;;;;;7.70;5.65;;;16.10;99.90;;;;;;5051783;28;20492;-51
2022/05/13 01:59:35;;;;;;;6.50;5.78;;;16.10;99.90;;;;;;5051694;28;20043;-53
2022/05/13 02:02:01;;;;;;;8.40;6.20;;;16.20;99.90;;;;;;5051429;28;20111;-53
2022/05/13 02:04:26;;;;;;;7.70;6.45;;;16.20;99.90;;;;;;5051827;28;20103;-54
2022/05/13 02:06:52;;;;;;;9.10;5.55;;;16.20;99.90;;;;;;5051597;28;20024;-50
2022/05/13 02:09:18;;;;;;;9.90;5.90;;;16.20;99.90;;;;;;5051699;28;20021;-54
2022/05/13 02:11:45;;;;;;;9.50;6.25;;;16.20;99.90;;;;;;5051180;28;20044;-52
2022/05/13 02:14:15;;;;;;;6.90;5.93;;;16.20;99.90;;;;;;5051422;28;20020;-51
2022/05/13 02:16:41;;;;;;;11.38;6.85;;;16.10;99.90;;;;;;5051386;28;20116;-50
2022/05/13 02:19:07;;;;;;;7.80;6.20;;;16.10;99.90;;;;;;5051590;28;20146;-54
2022/05/13 02:21:32;;;;;;;8.13;6.93;;;16.10;99.90;;;;;;5051213;28;20056;-53
2022/05/13 02:23:59;;;;;;;9.30;6.13;;;16.10;99.90;;;;;;5051474;28;20045;-53
2022/05/13 02:26:25;;;;;;;12.05;5.93;;;16.10;99.90;;;;;;5051407;28;20036;-52
2022/05/13 02:28:51;;;;;;;7.68;6.35;;;16.10;99.90;;;;;;5051463;28;20040;-51
2022/05/13 02:31:17;;;;;;;10.40;6.75;;;16.00;99.90;;;;;;5051512;28;20031;-52
2022/05/13 02:33:43;;;;;;;8.35;6.03;;;16.00;99.90;;;;;;5051393;28;20033;-53
2022/05/13 02:36:11;;;;;;;8.27;6.50;;;16.00;99.90;;;;;;5051382;28;20059;-51
2022/05/13 02:38:37;;;;;;;10.02;6.68;;;16.00;99.90;;;;;;5051334;28;20113;-52
2022/05/13 02:41:13;;;;;;;7.63;6.85;;;16.00;99.90;;;;;;5050227;28;20051;-51
2022/05/13 02:43:42;;;;;;;8.80;7.40;;;16.00;99.90;;;;;;5050545;28;20017;-56
2022/05/13 02:46:08;;;;;;;10.77;6.88;;;15.90;99.90;;;;;;5051127;28;20025;-51
2022/05/13 02:48:34;;;;;;;14.35;7.05;;;15.90;99.90;;;;;;5051197;28;20049;-52
2022/05/13 02:51:00;;;;;;;9.52;7.05;;;15.90;99.90;;;;;;5051246;28;20491;-53
2022/05/13 02:53:25;;;;;;;8.70;6.35;;;15.90;99.90;;;;;;5051161;28;20032;-51
2022/05/13 02:55:51;;;;;;;9.77;6.70;;;15.90;99.90;;;;;;5051174;28;20096;-56
2022/05/13 02:58:17;;;;;;;15.20;7.05;;;15.80;99.90;;;;;;5051103;28;20025;-54
2022/05/13 03:00:44;;;;;;;7.88;7.07;;;15.80;99.90;;;;;;5051043;28;20017;-52
2022/05/13 03:03:10;;;;;;;9.18;6.80;;;15.80;99.90;;;;;;5051175;28;20060;-54
2022/05/13 03:05:36;;;;;;;8.70;6.93;;;15.80;99.90;;;;;;5051014;28;20449;-50
2022/05/13 03:08:02;;;;;;;11.68;7.28;;;15.70;99.90;;;;;;5050913;28;20100;-51
2022/05/13 03:10:29;;;;;;;17.50;7.60;;;15.60;99.90;;;;;;5051147;28;20024;-55
2022/05/13 03:12:56;;;;;;;9.57;7.25;;;15.60;99.90;;;;;;5050853;28;20507;-53
2022/05/13 03:15:22;;;;;;;11.70;7.32;;;15.60;99.90;;;;;;5051004;28;20037;-51
2022/05/13 03:17:49;;;;;;;8.77;7.55;;;15.50;99.90;;;;;;5050860;28;20037;-50
2022/05/13 03:20:18;;;;;;;8.40;7.35;;;15.50;99.90;;;;;;5050815;28;20044;-49
2022/05/13 03:22:47;;;;;;;10.68;7.75;;;15.60;99.90;;;;;;5050690;28;20056;-53
2022/05/13 03:25:14;;;;;;;9.23;7.45;;;15.60;99.90;;;;;;5053313;28;20017;-55
2022/05/13 03:27:40;;;;;;;8.63;7.72;;;15.60;99.90;;;;;;5054776;28;20530;-55
2022/05/13 03:30:08;;;;;;;9.20;7.78;;;15.70;99.90;;;;;;5054500;28;20468;-55
2022/05/13 03:32:34;;;;;;;22.80;7.55;;;15.60;99.90;;;;;;5054384;28;20025;-54
2022/05/13 03:34:59;;;;;;;13.13;7.05;;;15.60;99.90;;;;;;5054590;28;20047;-56
2022/05/13 03:37:25;;;;;;;11.30;7.75;;;15.60;99.90;;;;;;5054373;28;20029;-52
2022/05/13 03:39:51;;;;;;;10.40;7.70;;;15.60;99.90;;;;;;5054396;28;20048;-54
2022/05/13 03:42:16;;;;;;;12.57;8.15;;;15.60;99.90;;;;;;5052990;28;20623;-54
2022/05/13 03:44:43;;;;;;;12.23;8.35;;;15.60;99.90;;;;;;5054432;28;20159;-56
2022/05/13 03:47:08;;;;;;;9.98;8.98;;;15.60;99.90;;;;;;5053857;28;20025;-56
2022/05/13 03:49:34;;;;;;;10.90;8.35;;;15.70;99.90;;;;;;5054045;28;20464;-52
2022/05/13 03:52:00;;;;;;;9.23;7.78;;;15.70;99.90;;;;;;5054011;28;20028;-51
2022/05/13 03:54:26;;;;;;;7.88;7.13;;;15.70;99.90;;;;;;5054185;28;20365;-52
2022/05/13 03:56:52;;;;;;;12.57;8.20;;;15.70;99.90;;;;;;5053945;28;20040;-51
2022/05/13 03:59:18;;;;;;;9.20;7.93;;;15.70;99.90;;;;;;5053866;28;20025;-56
2022/05/13 04:01:44;;;;;;;8.98;8.07;;;15.70;99.90;;;;;;5053973;28;20035;-54
2022/05/13 04:04:10;;;;;;;8.82;7.85;;;15.70;99.90;;;;;;5053889;28;20396;-51
2022/05/13 04:09:20;;;;;;;8.80;7.97;;;15.80;99.90;;;;;;5053796;28;20028;-55
2022/05/13 04:17:52;;;;;;;14.07;8.75;;;15.90;99.90;;;;;;5053595;28;20079;-54
2022/05/13 04:20:21;;;;;;;11.02;8.43;;;15.90;99.90;;;;;;5053475;28;20021;-54
2022/05/13 04:22:46;;;;;;;10.93;8.25;;;15.90;99.90;;;;;;5053425;28;20179;-55
2022/05/13 04:25:12;;;;;;;11.13;8.00;;;15.90;99.90;;;;;;5053559;28;20582;-52
2022/05/13 04:27:39;;;;;;;10.35;7.57;;;15.90;99.90;;;;;;5053393;28;20024;-54
2022/05/13 04:30:06;;;;;;;13.63;9.35;;;16.00;99.90;;;;;;5053477;28;20017;-53
2022/05/13 04:32:32;;;;;;;8.43;7.28;;;16.00;99.90;;;;;;5052808;28;20041;-49
2022/05/13 04:34:58;;;;;;;14.00;7.57;;;16.10;99.90;;;;;;5052664;28;20021;-50
2022/05/13 04:37:25;;;;;;;14.70;6.80;;;16.20;99.90;;;;;;5052899;28;20074;-48
2022/05/13 04:39:53;;;;;;;10.23;7.53;;;16.10;99.90;;;;;;5053027;28;20025;-51
2022/05/13 04:45:05;;;;;;;7.57;6.78;;;16.10;99.90;;;;;;5053071;28;20491;-54
2022/05/13 04:50:15;;;;;;;9.48;6.75;;;16.10;99.90;;;;;;5052936;28;20031;-52
2022/05/13 04:52:41;;;;;;;10.38;6.90;;;16.00;99.90;;;;;;5052900;28;20108;-55
2022/05/13 04:55:08;;;;;;;14.25;6.20;;;16.10;99.90;;;;;;5052841;28;20108;-51
2022/05/13 04:57:33;;;;;;;13.80;6.55;;;16.10;99.90;;;;;;5051295;28;20033;-51
2022/05/13 04:59:59;;;;;;;7.72;6.28;;;16.10;99.90;;;;;;5052919;28;20436;-51
2022/05/13 05:02:25;;;;;;;10.45;8.15;;;16.10;99.90;;;;;;5052677;28;20040;-52
2022/05/13 05:04:50;;;;;;;8.23;6.10;;;16.10;99.90;;;;;;5052431;28;20025;-56
2022/05/13 05:07:16;;;;;;;7.10;5.90;;;16.20;99.90;;;;;;5052678;28;20029;-52
2022/05/13 05:09:42;;;;;;;10.85;6.63;;;16.20;99.90;;;;;;5052146;28;20021;-49
2022/05/13 05:12:09;;;;;;;10.95;5.70;;;16.10;99.90;;;;;;5051871;28;20033;-51
2022/05/13 05:14:35;;;;;;;8.85;6.18;;;16.20;99.90;;;;;;5051291;28;20017;-50
2022/05/13 05:17:00;;;;;;;9.18;6.55;;;16.20;99.90;;;;;;5051337;28;20058;-57
2022/05/13 05:19:26;;;;;;;9.50;6.38;;;16.30;99.90;;;;;;5050011;28;20469;-60
2022/05/13 05:21:52;;;;;;;7.03;6.15;;;16.20;99.90;;;;;;5050942;28;20033;-53
2022/05/13 05:24:17;;;;;;;6.63;5.90;;;16.20;99.90;;;;;;5052213;28;20017;-54
2022/05/13 05:26:43;;;;;;;7.15;5.97;;;16.20;99.90;;;;;;5049937;28;20021;-52
2022/05/13 05:29:09;;;;;;;11.85;6.80;;;16.20;99.90;;;;;;5051111;28;20036;-50
2022/05/13 05:31:34;;;;;;;11.05;6.53;;;16.20;99.90;;;;;;5051277;28;20029;-49
2022/05/13 05:34:00;;;;;;;11.63;6.43;;;16.20;99.90;;;;;;5051443;28;20166;-56
2022/05/13 05:36:26;;;;;;;7.95;6.93;;;16.20;99.90;;;;;;5051825;28;20069;-56
2022/05/13 05:38:51;;;;;;;11.45;7.95;;;16.20;99.90;;;;;;5051748;28;20032;-53
2022/05/13 05:41:18;;;;;;;15.95;7.78;;;16.20;99.90;;;;;;5051740;28;20041;-54
2022/05/13 05:43:44;;;;;;;10.98;7.50;;;16.30;99.90;;;;;;5051900;28;20546;-54
2022/05/13 05:46:09;;;;;;;10.05;7.88;;;16.30;99.90;;;;;;5051915;28;20053;-50
2022/05/13 05:48:35;;;;;;;9.82;7.80;;;16.40;99.90;;;;;;5051248;28;20108;-51
2022/05/13 05:51:01;;;;;;;9.50;6.88;;;16.40;99.90;;;;;;5051721;28;20118;-55
2022/05/13 05:59:00;;;;;;;11.55;8.18;;;16.60;99.90;;;;;;5051896;28;20476;-53
2022/05/13 06:01:26;;;;;;;12.70;7.55;;;16.50;99.90;;;;;;5051687;28;20083;-53
2022/05/13 06:03:53;;;;;;;12.75;7.93;;;16.40;99.90;;;;;;5049170;28;20028;-55
2022/05/13 06:06:19;;;;;;;11.95;7.63;;;16.50;99.90;;;;;;5050541;28;20357;-50
2022/05/13 06:08:45;;;;;;;7.63;6.85;;;16.70;99.90;;;;;;5050279;28;20400;-52
2022/05/13 06:11:11;;;;;;;7.63;6.30;;;17.00;99.90;;;;;;5050851;28;20017;-56
2022/05/13 06:13:37;;;;;;;7.95;6.18;;;17.30;99.90;;;;;;5050112;28;20104;-55
2022/05/13 06:16:07;;;;;;;13.18;5.72;;;17.50;99.90;;;;;;5050410;28;20074;-57
2022/05/13 06:18:34;;;;;;;15.27;6.40;;;17.60;99.90;;;;;;5050269;28;20127;-57
2022/05/13 06:21:00;;;;;;;10.27;6.57;;;17.70;99.90;;;;;;5050122;28;20068;-49
2022/05/13 06:23:25;;;;;;;10.35;7.15;;;17.80;99.90;;;;;;5050254;28;20088;-49
2022/05/13 06:25:51;;;;;;;11.23;6.43;;;17.80;99.90;;;;;;5050218;28;20025;-54
2022/05/13 06:28:17;;;;;;;7.28;6.13;;;18.00;99.90;;;;;;5049982;28;20044;-50
2022/05/13 06:30:42;;;;;;;10.93;6.57;;;18.10;99.90;;;;;;5050094;28;20044;-55
2022/05/13 06:33:08;;;;;;;13.60;8.00;;;18.20;99.90;;;;;;5048992;28;20021;-52
2022/05/13 06:35:41;;;;;;;8.98;6.97;;;18.20;99.90;;;;;;5049866;28;20075;-56
2022/05/13 06:38:08;;;;;;;9.18;6.82;;;18.30;99.90;;;;;;5050200;28;20044;-57
2022/05/13 06:40:39;;;;;;;12.02;6.40;;;18.50;99.90;;;;;;5050439;28;20025;-49
2022/05/13 06:43:05;;;;;;;10.57;7.00;;;18.50;99.90;;;;;;5049328;28;20025;-55
2022/05/13 06:45:30;;;;;;;12.10;6.30;;;18.50;99.90;;;;;;5049209;28;20032;-55
2022/05/13 06:47:56;;;;;;;8.57;6.53;;;18.40;99.90;;;;;;5050197;28;20025;-55
2022/05/13 06:50:22;;;;;;;6.43;5.50;;;18.60;99.90;;;;;;5050163;28;20026;-54
2022/05/13 06:52:48;;;;;;;9.85;6.68;;;18.70;99.90;;;;;;5049731;28;20439;-54
2022/05/13 06:55:17;;;;;;;13.68;7.35;;;18.80;99.90;;;;;;5050016;28;20028;-52
2022/05/13 06:57:42;;;;;;;8.07;6.50;;;18.40;99.90;;;;;;5049822;28;20025;-53
2022/05/13 07:00:10;;;;;;;17.17;6.90;;;18.60;99.90;;;;;;5053886;28;20115;-52
2022/05/13 07:02:36;;;;;;;11.60;7.20;;;18.40;99.90;;;;;;5053535;28;20044;-54
2022/05/13 07:05:03;;;;;;;7.85;6.75;;;18.30;99.90;;;;;;5053880;28;20025;-54
2022/05/13 07:07:28;;;;;;;7.60;5.88;;;18.60;99.90;;;;;;5054631;28;20017;-56
2022/05/13 07:09:54;;;;;;;10.98;6.82;;;18.50;99.90;;;;;;5054718;28;20529;-51
2022/05/13 07:12:20;;;;;;;10.68;6.38;;;18.60;99.90;;;;;;5054894;28;20372;-56
2022/05/13 07:14:45;;;;;;;7.28;6.20;;;18.90;99.90;;;;;;5054779;28;20029;-57
2022/05/13 07:17:11;;;;;;;9.75;7.00;;;18.60;99.90;;;;;;5054992;28;20086;-55
2022/05/13 07:19:37;;;;;;;12.68;6.35;;;18.50;99.90;;;;;;5054573;28;20091;-56
2022/05/13 07:22:03;;;;;;;7.93;6.80;;;18.70;99.90;;;;;;5054544;28;20049;-55
2022/05/13 07:24:29;;;;;;;9.70;5.82;;;18.80;99.90;;;;;;5054519;28;20508;-58
2022/05/13 07:26:55;;;;;;;9.23;5.88;;;18.70;99.90;;;;;;5054603;28;20032;-57
2022/05/13 07:29:21;;;;;;;10.88;6.38;;;18.70;99.90;;;;;;5054529;28;20342;-58
2022/05/13 07:31:46;;;;;;;9.23;6.35;;;18.60;99.90;;;;;;5054460;28;20369;-57
2022/05/13 07:34:12;;;;;;;10.48;5.82;;;18.50;99.90;;;;;;5054449;28;20481;-54
2022/05/13 07:36:37;;;;;;;8.35;6.35;;;18.50;99.90;;;;;;5054379;28;20044;-56
2022/05/13 07:41:48;;;;;;;6.78;6.18;;;18.60;99.90;;;;;;5054386;28;20040;-57
2022/05/13 07:44:14;;;;;;;9.50;6.03;;;18.70;99.90;;;;;;5054351;28;20028;-57
2022/05/13 07:46:40;;;;;;;9.95;6.75;;;18.90;99.90;;;;;;5054287;28;20021;-54
2022/05/13 07:49:07;;;;;;;7.68;6.28;;;19.10;99.90;;;;;;5054206;28;20364;-59
2022/05/13 07:51:33;;;;;;;8.25;6.50;;;19.30;99.90;;;;;;5054090;28;20031;-56
2022/05/13 07:53:59;;;;;;;10.88;6.22;;;19.40;99.90;;;;;;5054063;28;20061;-58
2022/05/13 07:56:25;;;;;;;33.55;7.10;;;19.30;99.90;;;;;;5054087;28;20055;-56
2022/05/13 07:58:50;;;;;;;7.63;6.85;;;19.00;99.90;;;;;;5053924;28;20025;-56
2022/05/13 08:01:17;;;;;;;8.77;7.15;;;18.90;99.90;;;;;;5053904;28;20047;-57
2022/05/13 08:03:43;;;;;;;14.63;8.02;;;18.90;99.90;;;;;;5053834;28;20013;-55
2022/05/13 08:06:12;;;;;;;21.27;7.50;;;18.80;99.90;;;;;;5053715;28;20079;-55
2022/05/13 08:08:43;;;;;;;12.10;6.90;;;18.60;99.90;;;;;;5052709;28;20056;-59
2022/05/13 08:11:12;;;;;;;14.45;7.40;;;18.40;99.90;;;;;;5051978;28;20407;-56
2022/05/13 08:13:38;;;;;;;11.68;7.15;;;18.40;99.90;;;;;;5052324;28;20021;-57
2022/05/13 08:16:07;;;;;;;16.92;7.72;;;18.40;99.90;;;;;;5053588;28;20100;-59
2022/05/13 08:18:34;;;;;;;8.20;6.93;;;18.50;99.90;;;;;;5052655;28;20052;-58
2022/05/13 08:21:00;;;;;;;9.90;6.57;;;18.50;99.90;;;;;;5052567;28;20392;-54
2022/05/13 08:23:26;;;;;;;14.82;7.78;;;18.40;99.90;;;;;;5053342;28;20017;-56
2022/05/13 08:25:52;;;;;;;12.48;8.35;;;18.50;99.90;;;;;;5053476;28;20045;-57
2022/05/13 08:28:20;;;;;;;12.32;7.05;;;18.60;99.90;;;;;;5053492;28;20498;-56
2022/05/13 08:30:46;;;;;;;12.00;7.68;;;18.70;99.90;;;;;;5053530;28;20078;-55
2022/05/13 08:33:12;;;;;;;14.00;7.57;;;18.70;99.90;;;;;;5053307;28;20048;-57
2022/05/13 08:35:47;;;;;;;15.52;7.03;;;19.10;99.90;;;;;;5053316;28;20475;-58
2022/05/13 08:38:15;;;;;;;10.80;7.03;;;19.30;99.90;;;;;;5053469;28;20107;-57
2022/05/13 08:40:50;;;;;;;7.18;6.25;;;19.20;99.90;;;;;;5053129;28;20021;-57
2022/05/13 08:43:39;;;;;;;11.63;7.18;;;19.20;99.90;;;;;;5051944;28;20021;-55
2022/05/13 08:46:30;;;;;;;10.50;6.57;;;19.40;99.90;;;;;;5052960;28;20027;-55
2022/05/13 08:48:58;;;;;;;7.60;6.80;;;19.30;99.90;;;;;;5053054;28;20023;-56
2022/05/13 08:51:27;;;;;;;10.98;6.82;;;19.00;99.90;;;;;;5052967;28;20393;-57
2022/05/13 08:54:14;;;;;;;7.78;6.70;;;19.20;99.90;;;;;;5052869;28;20021;-55
2022/05/13 08:56:40;;;;;;;9.00;6.93;;;19.10;99.90;;;;;;5052944;28;20025;-56
2022/05/13 08:59:15;;;;;;;11.98;7.80;;;19.10;99.90;;;;;;5052966;28;20412;-56
2022/05/13 09:01:49;;;;;;;11.80;6.53;;;19.20;99.90;;;;;;5052780;28;20029;-55
2022/05/13 09:04:34;;;;;;;8.35;6.75;;;19.00;99.90;;;;;;5052625;28;20046;-56
2022/05/13 09:07:04;;;;;;;9.80;6.40;;;19.10;99.90;;;;;;5052945;28;20582;-58
2022/05/13 09:09:31;;;;;;;14.15;6.60;;;19.10;99.90;;;;;;5052838;28;20479;-54
2022/05/13 09:12:19;;;;;;;9.48;6.97;;;18.90;99.90;;;;;;5052759;28;20025;-57
2022/05/13 09:14:52;;;;;;;9.40;6.13;;;19.10;99.90;;;;;;5052504;28;20447;-57
2022/05/13 09:17:24;;;;;;;8.15;6.70;;;19.20;99.90;;;;;;5052574;28;20072;-59
2022/05/13 09:19:59;;;;;;;8.90;6.90;;;19.30;99.90;;;;;;5051555;28;20108;-58
2022/05/13 09:22:45;;;;;;;6.15;5.55;;;19.60;99.90;;;;;;5049126;28;20045;-59
2022/05/13 09:25:48;;;;;;;8.02;6.38;;;19.50;99.90;;;;;;5050302;28;20020;-58
2022/05/13 09:28:16;;;;;;;10.40;6.03;;;19.80;99.90;;;;;;5051007;28;20025;-57
2022/05/13 09:30:47;;;;;;;12.85;6.68;;;19.70;99.90;;;;;;5051053;28;20442;-56
2022/05/13 09:33:34;;;;;;;10.13;6.20;;;19.80;99.90;;;;;;5068003;28;20021;-59
2022/05/13 09:36:09;;;;;;;7.95;5.50;;;19.90;99.90;;;;;;5071655;28;20028;-58
2022/05/13 09:38:42;;;;;;;6.30;5.70;;;19.60;99.90;;;;;;5072011;28;20414;-58
2022/05/13 09:41:10;;;;;;;11.05;5.85;;;20.20;99.90;;;;;;5071506;28;20032;-58
2022/05/13 09:43:38;;;;;;;10.20;5.47;;;19.90;99.90;;;;;;5071643;28;20028;-58
2022/05/13 09:46:19;;;;;;;7.55;5.35;;;20.10;99.90;;;;;;5071157;28;20070;-58
2022/05/13 09:48:58;;;;;;;9.05;5.75;;;20.30;99.90;;;;;;5063548;28;20079;-57
2022/05/13 09:51:31;;;;;;;13.13;6.22;;;20.40;99.90;;;;;;5038793;28;20090;-56
2022/05/13 09:54:31;;;;;;;10.77;5.90;;;20.70;99.90;;;;;;5040532;28;20032;-59
2022/05/13 09:57:21;;;;;;;5.45;4.93;;;20.70;99.90;;;;;;5040884;28;20036;-59
2022/05/13 09:59:55;;;;;;;9.05;5.75;;;21.50;99.90;;;;;;5039757;28;20094;-57
2022/05/13 10:02:28;;;;;;;7.78;5.28;;;21.20;99.90;;;;;;5040122;28;20517;-58
2022/05/13 10:05:10;;;;;;;6.93;5.38;;;20.90;99.90;;;;;;5041367;28;20409;-59
2022/05/13 10:07:41;;;;;;;6.28;4.88;;;20.80;99.90;;;;;;5038366;28;20021;-57
2022/05/13 10:15:42;;;;;;;7.97;5.10;;;22.10;99.90;;;;;;5040473;28;20048;-59
2022/05/13 10:18:23;;;;;;;7.22;4.35;;;22.80;99.90;;;;;;5040799;28;20478;-58
2022/05/13 10:20:54;;;;;;;6.88;4.63;;;22.90;99.90;;;;;;5040466;28;20049;-59
2022/05/13 10:23:38;;;;;;;9.82;2.92;;;23.20;99.90;;;;;;5040155;28;20036;-59
2022/05/13 10:26:10;;;;;;;5.57;3.17;;;23.40;96.90;;;;;;5040676;28;20029;-58
2022/05/13 10:28:40;;;;;;;4.57;3.30;;;23.60;98.30;;;;;;5040288;28;20029;-58
2022/05/13 10:31:18;;;;;;;3.30;3.00;;;22.90;97.70;;;;;;5040109;28;20025;-58
2022/05/13 10:34:02;;;;;;;7.88;3.28;;;23.20;98.50;;;;;;5038442;28;20546;-59
2022/05/13 10:36:47;;;;;;;5.10;3.08;;;23.50;97.70;;;;;;5037985;28;20078;-57
2022/05/13 10:39:43;;;;;;;5.72;3.60;;;23.40;96.60;;;;;;5038941;28;20029;-57
2022/05/13 10:42:20;;;;;;;4.72;3.55;;;23.40;97.20;;;;;;5039123;28;20415;-57
2022/05/13 10:44:58;;;;;;;4.35;3.58;;;23.30;97.50;;;;;;5057148;28;20020;-57
2022/05/13 10:47:30;;;;;;;9.02;3.10;;;23.10;96.50;;;;;;5080779;28;20029;-58
2022/05/13 10:49:55;;;;;;;7.80;3.67;;;23.30;96.90;;;;;;5038550;28;20192;-59
2022/05/13 10:52:39;;;;;;;13.32;4.00;;;23.40;97.00;;;;;;5058288;28;20039;-57
2022/05/13 10:55:30;;;;;;;6.43;3.08;;;23.40;96.80;;;;;;5058963;28;20025;-59
2022/05/13 10:58:21;;;;;;;5.32;3.60;;;23.90;96.70;;;;;;5058618;28;20625;-56
2022/05/13 11:01:04;;;;;;;6.78;3.58;;;23.60;96.30;;;;;;5058424;28;20538;-57
2022/05/13 11:03:51;;;;;;;6.20;3.92;;;23.50;95.60;;;;;;5058475;28;20082;-58
2022/05/13 11:06:46;;;;;;;5.60;3.28;;;22.90;96.40;;;;;;5058434;28;20074;-59
2022/05/13 11:09:21;;;;;;;8.45;3.33;;;22.50;97.40;;;;;;5048413;28;20032;-59
2022/05/13 11:11:47;;;;;;;9.00;3.85;;;21.70;97.90;;;;;;5038880;28;20048;-57
2022/05/13 11:14:39;;;;;;;7.22;4.13;;;21.40;99.30;;;;;;5038504;28;20036;-56
2022/05/13 11:17:35;;;;;;;8.18;4.47;;;21.60;99.90;;;;;;5038196;28;20040;-59
2022/05/13 11:20:06;;;;;;;8.35;4.25;;;21.50;99.90;;;;;;5038787;28;20439;-59
2022/05/13 11:22:44;;;;;;;5.32;3.85;;;21.40;99.90;;;;;;5038678;28;20044;-57
2022/05/13 11:28:45;;;;;;;4.63;4.18;;;21.00;99.90;;;;;;5037904;28;20491;-59
2022/05/13 11:31:14;;;;;;;7.53;5.10;;;20.70;99.90;;;;;;5038024;28;20029;-58
2022/05/13 11:34:08;;;;;;;5.40;4.85;;;20.40;99.90;;;;;;5038575;28;20025;-58
2022/05/13 11:36:33;;;;;;;8.57;5.10;;;20.30;99.90;;;;;;5038476;28;20025;-58
2022/05/13 11:39:20;;;;;;;5.55;4.63;;;19.90;99.90;;;;;;5037834;28;20067;-57
2022/05/13 11:42:09;;;;;;;8.77;5.22;;;19.80;99.90;;;;;;5041434;28;20060;-58
2022/05/13 11:44:59;;;;;;;16.60;6.18;;;19.70;99.90;;;;;;5039028;28;20029;-57
2022/05/13 11:47:56;;;;;;;11.02;5.30;;;19.60;99.90;;;;;;5043973;28;20040;-57
2022/05/13 11:50:24;;;;;;;8.95;6.13;;;19.30;99.90;;;;;;5043454;28;20028;-57
2022/05/13 11:52:51;;;;;;;9.25;6.25;;;19.00;99.90;;;;;;5045296;28;20041;-58
2022/05/13 11:55:52;;;;;;;12.60;6.43;;;18.90;99.90;;;;;;5043386;28;20040;-58
2022/05/13 11:58:47;;;;;;;12.93;6.70;;;18.70;99.90;;;;;;5020643;28;20025;-57
2022/05/13 12:01:14;;;;;;;10.75;6.10;;;18.60;99.90;;;;;;5045193;28;20476;-58
2022/05/13 12:03:40;;;;;;;7.25;5.88;;;18.40;99.90;;;;;;5043116;28;20028;-59
2022/05/13 12:06:11;;;;;;;13.00;6.68;;;18.20;99.90;;;;;;5051170;28;20020;-56
2022/05/13 12:08:36;;;;;;;18.00;4.55;;;17.80;99.90;;;;;;5042295;28;20388;-57
2022/05/13 12:11:02;;;;;;;7.75;4.30;;;17.30;99.90;;;;;;5043473;28;20048;-53
2022/05/13 12:13:50;;;;;;;6.68;3.67;;;17.00;99.90;;;;;;5047387;28;20143;-56
2022/05/13 12:16:36;;;;;;;9.07;3.30;;;17.00;99.90;;;;;;5053517;28;20029;-60
2022/05/13 12:19:25;;;;;;;4.18;3.28;;;16.90;99.90;;;;;;5053841;28;20075;-57
2022/05/13 12:22:22;;;;;;;6.57;2.80;;;17.10;99.90;;;;;;5057390;28;20128;-59
2022/05/13 12:24:58;;;;;;;3.03;2.72;;;17.30;99.90;;;;;;5093905;28;20599;-55
2022/05/13 12:27:34;;;;;;;3.90;2.72;;;17.50;99.90;;;;;;5093313;28;20410;-60
2022/05/13 12:30:21;;;;;;;6.15;3.17;;;17.40;99.90;;;;;;5093053;28;20020;-59
2022/05/13 12:32:48;;;;;;;12.82;2.70;;;17.60;99.90;;;;;;5091920;28;20526;-58
2022/05/13 12:38:23;;;;;;;6.63;3.40;;;17.90;99.90;;;;;;5052046;28;20356;-58
2022/05/13 12:41:05;;;;;;;8.00;3.15;;;18.00;99.90;;;;;;5051964;28;20021;-56
2022/05/13 12:43:53;;;;;;;2.80;2.60;;;18.00;99.90;;;;;;5076022;28;20514;-57
2022/05/13 12:46:21;;;;;;;6.10;2.50;;;17.90;99.90;;;;;;5092081;28;20024;-55
2022/05/13 12:49:02;;;;;;;3.55;2.20;;;17.90;99.90;;;;;;5091915;28;20032;-57
2022/05/13 12:51:46;;;;;;;8.20;2.85;;;17.90;99.90;;;;;;5091679;28;20360;-57
2022/05/13 12:54:16;;;;;;;5.30;3.35;;;17.90;99.90;;;;;;5091938;28;20020;-61
2022/05/13 12:56:50;;;;;;;10.35;3.53;;;17.70;99.90;;;;;;5087000;28;20032;-59
2022/05/13 12:59:33;;;;;;;8.98;3.58;;;17.60;99.90;;;;;;5071352;28;20029;-61
2022/05/13 13:02:03;;;;;;;6.85;3.65;;;17.50;99.90;;;;;;5071205;28;20021;-53
2022/05/13 13:04:32;;;;;;;7.82;3.20;;;17.20;99.90;;;;;;5071502;28;20434;-56
2022/05/13 13:07:13;;;;;;;11.13;4.05;;;17.10;99.90;;;;;;5071382;28;20021;-56
2022/05/13 13:09:47;;;;;;;20.98;3.63;;;16.90;99.90;;;;;;5071229;28;20483;-56
2022/05/13 13:12:22;;;;;;;8.82;3.97;;;16.70;99.90;;;;;;5081915;28;20441;-58
2022/05/13 13:15:05;;;;;;;4.18;3.67;;;16.50;99.90;;;;;;5091450;28;20023;-58
2022/05/13 13:17:41;;;;;;;5.72;4.28;;;16.30;99.90;;;;;;5091828;28;20039;-57
2022/05/13 13:20:10;;;;;;;6.38;5.60;;;16.20;99.90;;;;;;5092677;28;20094;-54
2022/05/13 13:22:42;;;;;;;8.40;5.20;;;16.10;99.90;;;;;;5092447;28;20058;-55
2022/05/13 13:25:22;;;;;;;15.13;5.70;;;16.10;99.90;;;;;;5042107;28;20040;-51
2022/05/13 13:27:48;;;;;;;7.05;4.43;;;16.10;99.90;;;;;;5040114;28;20086;-53
2022/05/13 13:30:20;;;;;;;8.75;4.10;;;16.20;99.90;;;;;;5041000;28;20025;-57
2022/05/13 13:32:48;;;;;;;4.45;3.97;;;16.20;99.90;;;;;;5041200;28;20040;-55
2022/05/13 13:35:14;;;;;;;6.93;4.50;;;16.30;99.90;;;;;;5041755;28;20029;-57
2022/05/13 13:37:40;;;;;;;8.63;4.53;;;16.50;99.90;;;;;;5040467;28;20095;-57